Pagrindinis puslapis
METAR-TAF:

METAR-TAF

Oro uostai :

Lamecija Termė, Italija

platuma: 38-54N, ilguma: 016-15E, Aukštis: 15 m

Dabartinis oras

Ataskaita buvo paskelbta 32 minutes, ne 18:50 UTC
Vėjas 3 kt iš Šiaurės Rytų
Temperatūra 20°C
Drėgmė 83%
Slėgis 1016 hPa
Matomumas 10 km arba daugiau
Mažai debesys ne aukštis 2000 ft

METAR: LICA 191850Z 04003KT 9999 FEW020 20/17 Q1016

Laikas: 21:22 (19:22 UTC)

Prognozė

Ataskaita buvo paskelbta 2 valandos ir 22 minutes, ne 17:00 UTC
Prognozė galioja nuo 19 metu 18 UTC su 20 metu 18 UTC
Vėjas 6 kt nuo kintamojo kryptimis
Matomumas 10 km arba daugiau
Išsisklaidę debesys ne aukštis 2000 ft
Laikinai
nuo 19 metu 21 UTC su 20 metu 15 UTC
perkūnija, lietus

TAF: LICA 191700Z 1918/2018 VRB06KT 9999 SCT020 TEMPO 1921/2015 TSRA

Orai ataskaitas ir orų prognozės (METAR, TAF).

turimą stotys yra geltonos ir raudonos taškus žemėlapyje.

Perkelti pele per norėdami pamatyti stoties vardą.

Tada spustelėkite, norėdami matyti oro stebėjimo ir prognozės.

Norėdami pakeisti žemėlapį: spustelėkite ant žalios mygtukų su juodo kryžiaus žemyn,; žalią mygtuką su brūkšneliu, jei norite nutolinti; arba žalių rodyklių gretimoms žemėlapius.


METAR-TAF: